Airfield :
LOGIN :

Register | Disclaimer

   EN    FR    IT 

 










Legend :    VFR   Marginal VFR   IFR   Intensive IFR   Very Intensive IFR
Visi :
Ceiling :
>= 8 km
>= 3000ft
5 to 8 km
1000 to 3000 ft
1500m to 5 km
500 to 1000 ft
800 to 1500m
200 to 500 ft
< 800m
< 200 ft
Symbols :   Thunderstorms  Fog  Heavy snow  Heavy precipitations  Wind > 20 kt
SIGMETs :     Misc.  Thunderstorms  Icing  Turbulence  Mountain Waves  Volcanic Ashes






- Airport Elevation : 416 ft
- IATA code : OVD


LEAS - Asturias

CURRENT METAR :
  • 250000Z AUTO 09006KT 060V140 9999 OVC003 19/18 Q1019

EXPIRED METARs :
  • 242330Z 09006KT 050V130 5000 BR -DZ OVC003 19/19 Q1020 NOSIG
  • 242300Z 08005KT 050V160 4000 BR -DZ BKN002 OVC004 19/19 Q1020 NOSIG
  • 242246Z 08006KT 360V110 4000 BR -DZ BKN002 OVC004 19/19 Q1020 NOSIG
  • 242230Z 07005KT 030V110 5000 BR -DZ BKN002 OVC004 19/19 Q1020 NOSIG
  • 242200Z 07004KT 020V140 4000 -DZ BR BKN002 OVC004 19/19 Q1020 NOSIG
  • 242137Z 07005KT 020V100 2000 -DZ BR BKN002 OVC006 19/19 Q1020 NOSIG
  • 242120Z 08005KT 040V120 5000 BR SCT002 OVC003 20/19 Q1020 NOSIG
  • 242100Z 07003KT 030V110 9999 BKN007 BKN012 20/19 Q1020 NOSIG
  • 242030Z 08005KT 040V110 9999 BKN008 BKN012 20/19 Q1020 NOSIG
  • 242000Z 08006KT 050V120 9999 BKN009 BKN016 20/19 Q1020 NOSIG
  • 241930Z 08005KT 020V120 9999 BKN010 BKN017 20/19 Q1020 NOSIG
  • 241900Z 09006KT 050V120 9999 BKN010 21/19 Q1020 NOSIG

TAF AMD TAF LEAS
Valid from the 24 at 21:00 until the 25 at 21:00 UTC


242125Z 2421/2521 06009KT 9999 SCT010 BKN016 TX21/2514Z TN18/2521Z
TEMPO 2421/2512 BKN010
PROB40
TEMPO 2421/2512 BKN005
PROB30
TEMPO 2421/2512 3000 DZ BR BKN002
PROB30
TEMPO 2512/2515 BKN010



MET'MAP, your aeronautical weather chart ! - Copyright ORBIFLY December 2007 - Disclaimer

ORBIFLY MET'MAP TEAM :

Programming & Development : Alexandra Zaïnal
Original concept : Baudouin d'Aumeries
Technical & hardware support : Manuel Goepfert
Assistance : Marc-Olivier Méhu




SOURCES & CREDITS :

   NOAA